createdAt,value
2018-12-02T00:00:56.411Z,55.09
2018-12-02T00:03:25.602Z,54.13
2018-12-02T00:05:54.423Z,53.86
2018-12-02T00:08:23.561Z,54.02
2018-12-02T00:10:52.385Z,54.43
2018-12-02T00:13:21.172Z,54.35
2018-12-02T00:15:50.141Z,54.86
2018-12-02T00:18:18.948Z,54.09
2018-12-02T00:20:48.101Z,54.22
2018-12-02T00:23:16.896Z,54.73
2018-12-02T00:25:46.034Z,54.43
2018-12-02T00:28:15.055Z,55.01
2018-12-02T00:30:44.817Z,54.19
2018-12-02T00:33:13.605Z,53.73
2018-12-02T00:35:42.418Z,54.18
2018-12-02T00:38:11.541Z,53.28
2018-12-02T00:40:40.919Z,54.61
2018-12-02T00:43:10.025Z,53.58
2018-12-02T00:45:38.828Z,54.69
2018-12-02T00:48:08.819Z,53.42
2018-12-02T00:50:38.232Z,54.86
2018-12-02T00:53:08.980Z,54.12
2018-12-02T00:55:42.590Z,54.03
2018-12-02T00:58:11.575Z,54.26
2018-12-02T01:00:40.956Z,54.26
2018-12-02T01:03:10.324Z,55.11
2018-12-02T01:05:39.070Z,54.40
2018-12-02T01:08:08.179Z,54.81
2018-12-02T01:10:37.293Z,54.49
2018-12-02T01:13:08.348Z,54.33
2018-12-02T01:15:37.850Z,54.18
2018-12-02T01:18:07.494Z,54.95
2018-12-02T01:20:37.037Z,55.19
2018-12-02T01:23:06.716Z,55.49
2018-12-02T01:25:36.379Z,55.11
2018-12-02T01:28:05.445Z,55.52
2018-12-02T01:30:34.255Z,55.02
2018-12-02T01:33:03.244Z,55.21
2018-12-02T01:35:32.372Z,55.44
2018-12-02T01:38:01.154Z,54.87
2018-12-02T01:40:29.987Z,54.40
2018-12-02T01:42:58.754Z,54.32
2018-12-02T01:45:27.651Z,55.54
2018-12-02T01:47:56.692Z,55.08
2018-12-02T01:50:26.585Z,55.05
2018-12-02T01:52:56.204Z,54.66
2018-12-02T01:55:25.178Z,54.25
2018-12-02T01:57:54.743Z,54.88
2018-12-02T02:00:26.134Z,55.43
2018-12-02T02:02:55.838Z,54.23
2018-12-02T02:05:25.797Z,54.77
2018-12-02T02:07:54.602Z,55.46
2018-12-02T02:10:27.079Z,54.27
2018-12-02T02:12:56.088Z,55.17
2018-12-02T02:15:24.905Z,55.66
2018-12-02T02:17:53.695Z,55.13
2018-12-02T02:20:23.305Z,53.17
2018-12-02T02:22:52.382Z,54.60
2018-12-02T02:25:22.000Z,55.02
2018-12-02T02:27:57.757Z,54.56
2018-12-02T02:30:27.933Z,54.59
2018-12-02T02:32:57.072Z,55.20
2018-12-02T02:35:26.268Z,55.58
2018-12-02T02:37:56.599Z,54.74
2018-12-02T02:40:29.487Z,55.55
2018-12-02T02:42:58.344Z,55.62
2018-12-02T02:45:27.117Z,55.27
2018-12-02T02:47:56.859Z,55.60
2018-12-02T02:50:26.358Z,55.97
2018-12-02T02:52:56.220Z,55.70
2018-12-02T02:55:25.344Z,54.53
2018-12-02T02:57:54.150Z,55.19
2018-12-02T03:00:24.729Z,55.63
2018-12-02T03:02:53.988Z,54.19
2018-12-02T03:05:22.757Z,54.97
2018-12-02T03:07:51.746Z,54.75
2018-12-02T03:10:21.305Z,55.43
2018-12-02T03:12:52.586Z,55.53
2018-12-02T03:15:22.447Z,54.71
2018-12-02T03:17:51.415Z,55.13
2018-12-02T03:20:21.839Z,55.64
2018-12-02T03:22:52.062Z,55.72
2018-12-02T03:25:22.013Z,54.94
2018-12-02T03:27:51.000Z,55.72
2018-12-02T03:30:22.147Z,54.92
2018-12-02T03:32:51.161Z,54.89
2018-12-02T03:35:24.533Z,55.57
2018-12-02T03:37:53.972Z,55.74
2018-12-02T03:40:25.126Z,55.29
2018-12-02T03:42:54.105Z,54.98
2018-12-02T03:45:24.090Z,54.67
2018-12-02T03:47:53.184Z,54.80
2018-12-02T03:50:23.013Z,55.00
2018-12-02T03:52:52.325Z,54.89
2018-12-02T03:55:21.122Z,55.30
2018-12-02T03:57:50.465Z,54.51
2018-12-02T04:00:21.160Z,55.68
2018-12-02T04:02:50.525Z,54.52
2018-12-02T04:05:21.799Z,54.85
2018-12-02T04:07:51.497Z,55.06
2018-12-02T04:10:20.487Z,56.00
2018-12-02T04:12:51.157Z,55.18
2018-12-02T04:15:23.909Z,55.70
2018-12-02T04:17:53.077Z,55.79
2018-12-02T04:20:22.221Z,55.16
2018-12-02T04:22:51.891Z,55.33
2018-12-02T04:25:22.764Z,56.02
2018-12-02T04:27:51.914Z,56.05
2018-12-02T04:30:21.661Z,55.85
2018-12-02T04:32:51.449Z,55.95
2018-12-02T04:35:22.053Z,55.91
2018-12-02T04:37:51.029Z,54.81
2018-12-02T04:40:19.845Z,55.79
2018-12-02T04:42:48.660Z,55.87
2018-12-02T04:45:18.318Z,55.90
2018-12-02T04:47:47.457Z,55.69
2018-12-02T04:50:18.043Z,54.93
2018-12-02T04:52:47.084Z,55.05
2018-12-02T04:55:16.284Z,55.65
2018-12-02T04:57:45.089Z,55.74
2018-12-02T05:00:16.593Z,55.42
2018-12-02T05:02:46.341Z,55.15
2018-12-02T05:05:16.426Z,55.79
2018-12-02T05:07:45.422Z,55.92
2018-12-02T05:10:15.854Z,54.93
2018-12-02T05:12:44.947Z,55.08
2018-12-02T05:15:15.398Z,54.67
2018-12-02T05:17:44.165Z,54.75
2018-12-02T05:20:27.451Z,55.40
2018-12-02T05:22:56.282Z,55.58
2018-12-02T05:25:25.097Z,55.29
2018-12-02T05:27:54.210Z,54.69
2018-12-02T05:30:23.491Z,55.57
2018-12-02T05:32:56.070Z,55.59
2018-12-02T05:35:25.030Z,55.46
2018-12-02T05:37:53.817Z,54.41
2018-12-02T05:40:23.322Z,55.10
2018-12-02T05:42:53.006Z,54.70
2018-12-02T05:45:22.577Z,55.10
2018-12-02T05:47:51.831Z,55.61
2018-12-02T05:50:24.320Z,55.34
2018-12-02T05:52:56.000Z,54.53
2018-12-02T05:55:28.861Z,55.29
2018-12-02T05:57:57.660Z,55.25
2018-12-02T06:00:26.670Z,54.57
2018-12-02T06:02:55.629Z,54.82
2018-12-02T06:05:24.642Z,54.85
2018-12-02T06:07:53.414Z,55.02
2018-12-02T06:10:22.805Z,55.15
2018-12-02T06:12:51.614Z,55.04
2018-12-02T06:15:21.065Z,54.39
2018-12-02T06:17:49.881Z,55.33
2018-12-02T06:20:21.862Z,54.66
2018-12-02T06:22:51.611Z,54.67
2018-12-02T06:25:20.631Z,54.48
2018-12-02T06:27:49.956Z,55.16
2018-12-02T06:30:20.057Z,55.08
2018-12-02T06:32:50.094Z,55.44
2018-12-02T06:35:18.845Z,55.48
2018-12-02T06:37:47.921Z,54.79
2018-12-02T06:40:20.062Z,55.60
2018-12-02T06:42:49.019Z,55.67
2018-12-02T06:45:17.842Z,55.51
2018-12-02T06:47:47.160Z,54.82
2018-12-02T06:50:18.112Z,54.41
2018-12-02T06:52:47.261Z,55.12
2018-12-02T06:55:20.306Z,56.05
2018-12-02T06:57:51.937Z,56.45
2018-12-02T07:01:05.690Z,56.16
2018-12-02T07:03:45.406Z,56.69
2018-12-02T07:06:14.231Z,56.85
2018-12-02T07:08:43.029Z,55.71
2018-12-02T07:11:11.781Z,55.52
2018-12-02T07:13:40.605Z,55.80
2018-12-02T07:16:09.380Z,56.12
2018-12-02T07:18:38.941Z,56.76
2018-12-02T07:21:09.113Z,56.20
2018-12-02T07:23:38.236Z,55.84
2018-12-02T07:26:07.126Z,56.53
2018-12-02T07:28:36.101Z,56.59
2018-12-02T07:31:05.326Z,55.99
2018-12-02T07:33:34.133Z,56.93
2018-12-02T07:36:02.877Z,56.60
2018-12-02T07:38:36.252Z,55.91
2018-12-02T07:41:06.910Z,56.00
2018-12-02T07:43:35.741Z,56.02
2018-12-02T07:46:04.632Z,56.54
2018-12-02T07:48:33.453Z,55.44
2018-12-02T07:51:02.232Z,56.13
2018-12-02T07:53:31.025Z,55.54
2018-12-02T07:55:59.835Z,55.16
2018-12-02T07:58:28.939Z,55.71
2018-12-02T08:00:58.229Z,56.44
2018-12-02T08:03:26.993Z,56.07
2018-12-02T08:05:55.762Z,55.47
2018-12-02T08:08:24.549Z,55.00
2018-12-02T08:10:53.357Z,55.60
2018-12-02T08:13:22.173Z,55.95
2018-12-02T08:15:51.118Z,56.20
2018-12-02T08:18:20.229Z,55.54
2018-12-02T08:20:49.030Z,54.75
2018-12-02T08:23:17.816Z,55.31
2018-12-02T08:25:46.606Z,56.02
2018-12-02T08:28:15.598Z,56.08
2018-12-02T08:30:44.621Z,56.49
2018-12-02T08:33:13.762Z,57.35
2018-12-02T08:35:42.552Z,56.62
2018-12-02T08:38:11.990Z,55.61
2018-12-02T08:40:40.822Z,56.27
2018-12-02T08:43:09.879Z,57.26
2018-12-02T08:45:38.782Z,57.27
2018-12-02T08:48:07.960Z,57.31
2018-12-02T08:50:37.285Z,55.46
2018-12-02T08:53:06.449Z,57.27
2018-12-02T08:55:35.779Z,56.64
2018-12-02T08:58:04.803Z,57.07
2018-12-02T09:00:34.145Z,57.05
2018-12-02T09:03:05.083Z,56.67
2018-12-02T09:05:34.209Z,57.86
2018-12-02T09:08:03.138Z,58.23
2018-12-02T09:10:32.883Z,56.97
2018-12-02T09:13:03.017Z,57.40
2018-12-02T09:15:32.148Z,57.08
2018-12-02T09:18:00.947Z,59.02
2018-12-02T09:20:31.834Z,58.84
2018-12-02T09:23:00.823Z,58.86
2018-12-02T09:25:29.620Z,58.42
2018-12-02T09:27:58.438Z,59.95
2018-12-02T09:30:28.365Z,60.25
2018-12-02T09:32:57.113Z,61.17
2018-12-02T09:35:25.920Z,59.49
2018-12-02T09:37:54.725Z,60.10
2018-12-02T09:40:23.520Z,58.13
2018-12-02T09:42:53.413Z,57.10
2018-12-02T09:45:24.127Z,57.53
2018-12-02T09:47:53.324Z,59.65
2018-12-02T09:50:22.649Z,59.94
2018-12-02T09:52:51.532Z,60.99
2018-12-02T09:55:22.956Z,59.95
2018-12-02T09:57:52.511Z,57.35
2018-12-02T10:00:22.038Z,59.20
2018-12-02T10:02:51.164Z,58.53
2018-12-02T10:05:19.958Z,60.17
2018-12-02T10:07:48.775Z,60.51
2018-12-02T10:10:22.329Z,62.34
2018-12-02T10:12:50.750Z,59.67
2018-12-02T10:15:19.556Z,58.31
2018-12-02T10:17:48.329Z,57.81
2018-12-02T10:20:17.497Z,57.34
2018-12-02T10:22:46.996Z,60.90
2018-12-02T10:25:16.980Z,56.84
2018-12-02T10:27:46.151Z,58.72
2018-12-02T10:30:19.532Z,58.49
2018-12-02T10:32:48.904Z,58.91
2018-12-02T10:35:17.695Z,61.86
2018-12-02T10:37:46.636Z,60.67
2018-12-02T10:40:20.394Z,60.37
2018-12-02T10:42:49.501Z,60.70
2018-12-02T10:45:25.933Z,62.53
2018-12-02T10:47:57.433Z,62.09
2018-12-02T10:50:35.067Z,64.67
2018-12-02T10:53:14.421Z,64.02
2018-12-02T10:55:46.848Z,65.34
2018-12-02T10:58:20.905Z,64.39
2018-12-02T11:00:56.254Z,64.09
2018-12-02T11:03:25.017Z,63.51
2018-12-02T11:05:54.124Z,65.63
2018-12-02T11:08:22.916Z,67.21
2018-12-02T11:10:51.839Z,67.88
2018-12-02T11:13:20.949Z,66.29
2018-12-02T11:15:49.935Z,64.41
2018-12-02T11:18:19.227Z,64.05
2018-12-02T11:20:48.508Z,61.25
2018-12-02T11:23:17.602Z,65.38
2018-12-02T11:25:46.558Z,64.79
2018-12-02T11:28:15.682Z,69.26
2018-12-02T11:30:44.527Z,66.71
2018-12-02T11:33:13.614Z,63.95
2018-12-02T11:35:42.380Z,69.06
2018-12-02T11:38:11.161Z,67.52
2018-12-02T11:40:40.633Z,67.64
2018-12-02T11:43:09.658Z,65.09
2018-12-02T11:45:38.498Z,62.09
2018-12-02T11:48:08.260Z,63.79
2018-12-02T11:50:37.870Z,61.91
2018-12-02T11:53:07.225Z,67.00
2018-12-02T11:55:36.341Z,64.18
2018-12-02T11:58:05.436Z,62.89
2018-12-02T12:00:35.841Z,61.50
2018-12-02T12:03:04.964Z,60.24
2018-12-02T12:05:33.781Z,58.93
2018-12-02T12:08:02.592Z,60.65
2018-12-02T12:10:31.385Z,60.78
2018-12-02T12:13:00.828Z,61.73
2018-12-02T12:15:30.706Z,59.03
2018-12-02T12:17:59.957Z,59.35
2018-12-02T12:20:42.358Z,60.33
2018-12-02T12:23:16.580Z,59.06
2018-12-02T12:25:45.369Z,59.46
2018-12-02T12:28:14.229Z,58.87
2018-12-02T12:30:43.254Z,57.06
2018-12-02T12:33:12.053Z,59.32
2018-12-02T12:35:45.741Z,58.77
2018-12-02T12:38:14.862Z,58.32
2018-12-02T12:40:44.198Z,58.36
2018-12-02T12:43:17.002Z,59.16
2018-12-02T12:45:45.790Z,58.63
2018-12-02T12:48:14.577Z,58.14
2018-12-02T12:50:46.262Z,58.04
2018-12-02T12:53:15.182Z,58.70
2018-12-02T12:55:43.977Z,58.13
2018-12-02T12:58:13.763Z,56.31
2018-12-02T13:00:42.564Z,58.17
2018-12-02T13:03:11.361Z,57.65
2018-12-02T13:05:40.129Z,58.93
2018-12-02T13:08:10.513Z,59.53
2018-12-02T13:10:39.344Z,59.02
2018-12-02T13:13:08.522Z,60.15
2018-12-02T13:15:37.698Z,57.10
2018-12-02T13:18:08.081Z,60.12
2018-12-02T13:20:40.309Z,59.53
2018-12-02T13:23:09.179Z,58.97
2018-12-02T13:25:38.121Z,61.00
2018-12-02T13:28:07.629Z,59.46
2018-12-02T13:30:37.093Z,60.09
2018-12-02T13:33:07.007Z,61.35
2018-12-02T13:35:37.300Z,59.53
2018-12-02T13:38:06.231Z,59.48
2018-12-02T13:40:35.244Z,60.57
2018-12-02T13:43:10.285Z,60.06
2018-12-02T13:45:39.479Z,61.28
2018-12-02T13:48:08.286Z,57.98
2018-12-02T13:50:37.478Z,60.12
2018-12-02T13:53:06.847Z,59.85
2018-12-02T13:55:35.796Z,60.81
2018-12-02T13:58:04.859Z,60.34
2018-12-02T14:00:33.819Z,59.01
2018-12-02T14:03:04.049Z,60.07
2018-12-02T14:05:32.841Z,62.09
2018-12-02T14:08:01.657Z,62.12
2018-12-02T14:10:30.486Z,61.36
2018-12-02T14:13:01.685Z,64.67
2018-12-02T14:15:55.146Z,66.11
2018-12-02T14:18:34.002Z,62.52
2018-12-02T14:21:02.819Z,64.06
2018-12-02T14:23:32.255Z,64.47
2018-12-02T14:26:02.697Z,61.57
2018-12-02T14:30:38.718Z,64.11
2018-12-02T14:33:07.496Z,64.83
2018-12-02T14:35:36.340Z,63.70
2018-12-02T14:38:05.277Z,61.00
2018-12-02T14:40:34.066Z,69.12
2018-12-02T14:43:02.881Z,67.15
2018-12-02T14:45:31.677Z,65.87
2018-12-02T14:48:00.649Z,72.56
2018-12-02T14:50:29.462Z,64.16
2018-12-02T14:52:58.450Z,63.43
2018-12-02T14:55:27.577Z,63.09
2018-12-02T14:57:56.546Z,63.05
2018-12-02T15:00:25.356Z,67.08
2018-12-02T15:02:54.196Z,66.87
2018-12-02T15:05:23.498Z,64.96
2018-12-02T15:07:52.618Z,64.92
2018-12-02T15:10:22.496Z,64.75
2018-12-02T15:12:51.485Z,70.00
2018-12-02T15:15:20.588Z,66.59
2018-12-02T15:17:49.412Z,66.08
2018-12-02T15:20:20.305Z,62.96
2018-12-02T15:22:49.174Z,69.63
2018-12-02T15:25:18.105Z,67.02
2018-12-02T15:27:46.928Z,66.05
2018-12-02T15:30:18.245Z,65.58
2018-12-02T15:32:51.621Z,63.53
2018-12-02T15:35:20.473Z,63.64
2018-12-02T15:37:49.633Z,64.59
2018-12-02T15:40:19.018Z,63.13
2018-12-02T15:42:50.309Z,63.55
2018-12-02T15:45:19.533Z,65.85
2018-12-02T15:47:48.339Z,60.83
2018-12-02T15:50:19.244Z,62.13
2018-12-02T15:52:48.045Z,61.45
2018-12-02T15:55:20.246Z,59.48
2018-12-02T15:57:49.001Z,65.81
2018-12-02T16:00:20.089Z,62.99
2018-12-02T16:02:49.450Z,64.78
2018-12-02T16:05:18.203Z,66.86
2018-12-02T16:07:47.362Z,63.30
2018-12-02T16:10:16.166Z,70.28
2018-12-02T16:12:46.031Z,68.87
2018-12-02T16:15:18.031Z,69.03
2018-12-02T16:17:48.076Z,69.48
2018-12-02T16:20:21.309Z,67.26
2018-12-02T16:22:50.088Z,69.35
2018-12-02T16:25:18.962Z,71.61
2018-12-02T16:27:47.766Z,71.25
2018-12-02T16:30:18.281Z,69.16
2018-12-02T16:32:50.159Z,66.42
2018-12-02T16:35:19.732Z,68.99
2018-12-02T16:37:53.830Z,68.63
2018-12-02T16:40:23.926Z,65.29
2018-12-02T16:42:53.796Z,68.88
2018-12-02T16:45:22.942Z,70.50
2018-12-02T16:47:55.757Z,66.66
2018-12-02T16:50:33.793Z,65.03
2018-12-02T16:53:11.134Z,65.24
2018-12-02T16:55:44.297Z,68.51
2018-12-02T16:58:21.453Z,67.96
2018-12-02T17:00:58.035Z,70.48
2018-12-02T17:03:27.018Z,66.55
2018-12-02T17:05:55.831Z,69.44
2018-12-02T17:08:24.916Z,64.58
2018-12-02T17:10:53.693Z,67.32
2018-12-02T17:13:22.483Z,65.57
2018-12-02T17:15:51.447Z,65.27
2018-12-02T17:18:20.544Z,65.56
2018-12-02T17:20:49.326Z,64.86
2018-12-02T17:23:18.144Z,65.44
2018-12-02T17:25:46.940Z,64.53
2018-12-02T17:28:15.720Z,67.93
2018-12-02T17:30:49.740Z,64.03
2018-12-02T17:33:18.509Z,64.98
2018-12-02T17:35:47.298Z,67.38
2018-12-02T17:38:17.285Z,68.78
2018-12-02T17:40:46.394Z,69.00
2018-12-02T17:43:15.405Z,64.32
2018-12-02T17:45:44.174Z,70.67
2018-12-02T17:48:12.965Z,67.72
2018-12-02T17:50:42.099Z,68.81
2018-12-02T17:53:12.795Z,71.48
2018-12-02T17:55:41.581Z,69.60
2018-12-02T17:58:10.403Z,70.42
2018-12-02T18:00:39.206Z,69.15
2018-12-02T18:03:09.518Z,70.22
2018-12-02T18:05:41.576Z,63.88
2018-12-02T18:08:10.573Z,70.10
2018-12-02T18:10:39.617Z,64.60
2018-12-02T18:13:08.442Z,65.64
2018-12-02T18:15:37.247Z,67.90
2018-12-02T18:18:06.821Z,64.01
2018-12-02T18:20:36.205Z,66.85
2018-12-02T18:23:04.961Z,63.68
2018-12-02T18:25:33.765Z,66.15
2018-12-02T18:28:02.720Z,64.02
2018-12-02T18:30:31.717Z,70.01
2018-12-02T18:33:01.717Z,64.35
2018-12-02T18:35:37.485Z,67.12
2018-12-02T18:38:09.350Z,67.42
2018-12-02T18:40:39.261Z,69.14
2018-12-02T18:43:08.239Z,63.70
2018-12-02T18:45:37.044Z,69.60
2018-12-02T18:48:06.358Z,65.96
2018-12-02T18:50:35.129Z,65.36
2018-12-02T18:53:03.926Z,66.74
2018-12-02T18:55:32.691Z,66.71
2018-12-02T18:58:01.682Z,66.27
2018-12-02T19:00:36.356Z,66.65
2018-12-02T19:03:05.443Z,64.71
2018-12-02T19:05:34.424Z,70.58
2018-12-02T19:08:03.719Z,69.99
2018-12-02T19:10:32.765Z,70.54
2018-12-02T19:13:01.814Z,70.06
2018-12-02T19:15:30.805Z,70.91
2018-12-02T19:17:59.879Z,68.32
2018-12-02T19:20:29.780Z,66.67
2018-12-02T19:23:00.231Z,68.63
2018-12-02T19:25:29.844Z,68.07
2018-12-02T19:27:58.953Z,69.94
2018-12-02T19:30:32.888Z,68.95
2018-12-02T19:32:56.801Z,69.91
2018-12-02T19:35:28.923Z,70.52
2018-12-02T19:38:01.669Z,67.30
2018-12-02T19:40:30.608Z,65.77
2018-12-02T19:42:59.441Z,69.85
2018-12-02T19:45:28.225Z,70.77
2018-12-02T19:47:56.980Z,70.96
2018-12-02T19:50:25.764Z,66.93
2018-12-02T19:52:54.528Z,70.29
2018-12-02T19:55:23.313Z,68.67
2018-12-02T19:57:52.264Z,71.12
2018-12-02T20:00:26.240Z,69.55
2018-12-02T20:02:55.672Z,69.01
2018-12-02T20:05:25.011Z,68.68
2018-12-02T20:07:56.285Z,65.34
2018-12-02T20:10:30.345Z,69.88
2018-12-02T20:13:01.179Z,71.43
2018-12-02T20:15:29.941Z,66.68
2018-12-02T20:17:58.726Z,69.19
2018-12-02T20:20:32.850Z,68.41
2018-12-02T20:23:01.637Z,68.95
2018-12-02T20:25:30.398Z,65.91
2018-12-02T20:28:01.793Z,68.13
2018-12-02T20:30:32.099Z,67.46
2018-12-02T20:33:00.889Z,70.39
2018-12-02T20:35:29.881Z,68.40
2018-12-02T20:37:58.665Z,66.20
2018-12-02T20:40:27.789Z,67.20
2018-12-02T20:42:56.566Z,66.13
2018-12-02T20:45:25.706Z,69.38
2018-12-02T20:47:54.988Z,63.71
2018-12-02T20:50:23.648Z,67.07
2018-12-02T20:52:52.702Z,67.45
2018-12-02T20:55:22.864Z,67.28
2018-12-02T20:57:54.013Z,65.60
2018-12-02T21:00:22.796Z,67.17
2018-12-02T21:02:59.297Z,66.80
2018-12-02T21:05:37.516Z,67.80
2018-12-02T21:08:06.665Z,65.60
2018-12-02T21:10:36.014Z,64.26
2018-12-02T21:13:04.863Z,65.29
2018-12-02T21:15:33.625Z,66.88
2018-12-02T21:18:02.572Z,66.78
2018-12-02T21:20:31.557Z,67.35
2018-12-02T21:23:00.574Z,69.97
2018-12-02T21:25:29.737Z,66.02
2018-12-02T21:27:58.524Z,67.35
2018-12-02T21:30:28.531Z,67.89
2018-12-02T21:32:57.329Z,65.82
2018-12-02T21:35:26.121Z,67.42
2018-12-02T21:37:55.851Z,71.05
2018-12-02T21:40:24.641Z,71.54
2018-12-02T21:42:53.458Z,69.38
2018-12-02T21:45:22.789Z,66.05
2018-12-02T21:47:54.282Z,70.02
2018-12-02T21:50:27.885Z,64.33
2018-12-02T21:52:57.497Z,69.05
2018-12-02T21:55:26.276Z,67.60
2018-12-02T21:57:55.776Z,69.17
2018-12-02T22:00:30.117Z,70.82
2018-12-02T22:02:58.918Z,67.37
2018-12-02T22:05:27.744Z,72.17
2018-12-02T22:07:56.546Z,70.08
2018-12-02T22:10:27.842Z,70.76
2018-12-02T22:12:56.625Z,66.12
2018-12-02T22:15:25.758Z,69.67
2018-12-02T22:17:54.799Z,69.92
2018-12-02T22:20:23.611Z,66.82
2018-12-02T22:22:52.573Z,65.62
2018-12-02T22:25:22.910Z,67.53
2018-12-02T22:27:52.793Z,69.43
2018-12-02T22:30:22.553Z,64.72
2018-12-02T22:32:51.383Z,64.33
2018-12-02T22:35:20.408Z,64.99
2018-12-02T22:37:49.190Z,62.94
2018-12-02T22:40:22.678Z,61.93
2018-12-02T22:42:52.230Z,62.58
2018-12-02T22:45:26.022Z,62.14
2018-12-02T22:47:54.815Z,62.38
2018-12-02T22:50:25.396Z,61.15
2018-12-02T22:52:55.760Z,60.59
2018-12-02T22:55:24.534Z,62.58
2018-12-02T22:57:53.323Z,61.27
2018-12-02T23:00:29.914Z,62.43
2018-12-02T23:03:09.866Z,61.87
2018-12-02T23:05:39.561Z,62.34
2018-12-02T23:08:08.712Z,61.33
2018-12-02T23:10:38.108Z,60.95
2018-12-02T23:13:08.013Z,61.21
2018-12-02T23:15:37.153Z,60.45
2018-12-02T23:18:07.002Z,61.52
2018-12-02T23:20:35.796Z,61.75
2018-12-02T23:23:05.100Z,61.51
2018-12-02T23:25:34.183Z,61.28
2018-12-02T23:28:03.318Z,61.68
2018-12-02T23:30:32.142Z,61.68
2018-12-02T23:33:00.926Z,60.46
2018-12-02T23:35:29.744Z,61.64
2018-12-02T23:37:58.829Z,60.73
2018-12-02T23:40:27.615Z,62.67
2018-12-02T23:42:56.355Z,63.89
2018-12-02T23:45:25.304Z,61.35
2018-12-02T23:47:54.593Z,61.79
2018-12-02T23:50:24.793Z,62.83
2018-12-02T23:52:53.553Z,64.30
2018-12-02T23:55:22.721Z,61.81
2018-12-02T23:57:51.517Z,61.41
